sensor_id;sensor_type;location;lat;lon;timestamp;P1;durP1;ratioP1;P2;durP2;ratioP2
81807;SDS011;71241;13.676;100.700;2024-03-17T00:01:44;19.92;;;13.25;;
81807;SDS011;71241;13.676;100.700;2024-03-17T00:04:13;20.02;;;13.70;;
81807;SDS011;71241;13.676;100.700;2024-03-17T00:06:43;20.20;;;12.10;;
81807;SDS011;71241;13.676;100.700;2024-03-17T00:09:13;24.55;;;12.82;;
81807;SDS011;71241;13.676;100.700;2024-03-17T00:11:43;16.85;;;12.38;;
81807;SDS011;71241;13.676;100.700;2024-03-17T00:14:14;18.75;;;12.15;;
81807;SDS011;71241;13.676;100.700;2024-03-17T00:16:43;18.00;;;11.88;;
81807;SDS011;71241;13.676;100.700;2024-03-17T00:19:12;20.70;;;11.27;;
81807;SDS011;71241;13.676;100.700;2024-03-17T00:21:41;18.15;;;12.98;;
81807;SDS011;71241;13.676;100.700;2024-03-17T00:24:09;17.95;;;13.30;;
81807;SDS011;71241;13.676;100.700;2024-03-17T00:26:40;22.65;;;12.85;;
81807;SDS011;71241;13.676;100.700;2024-03-17T00:29:11;19.88;;;12.27;;
81807;SDS011;71241;13.676;100.700;2024-03-17T00:31:39;17.17;;;10.50;;
81807;SDS011;71241;13.676;100.700;2024-03-17T00:34:11;13.23;;;9.07;;
81807;SDS011;71241;13.676;100.700;2024-03-17T00:36:39;12.95;;;8.85;;
81807;SDS011;71241;13.676;100.700;2024-03-17T00:39:08;15.90;;;8.82;;
81807;SDS011;71241;13.676;100.700;2024-03-17T00:41:37;11.68;;;10.45;;
81807;SDS011;71241;13.676;100.700;2024-03-17T00:44:06;15.90;;;10.10;;
81807;SDS011;71241;13.676;100.700;2024-03-17T00:46:36;12.13;;;9.07;;
81807;SDS011;71241;13.676;100.700;2024-03-17T00:49:06;16.02;;;11.40;;
81807;SDS011;71241;13.676;100.700;2024-03-17T00:51:35;14.45;;;10.55;;
81807;SDS011;71241;13.676;100.700;2024-03-17T00:54:03;14.77;;;11.95;;
81807;SDS011;71241;13.676;100.700;2024-03-17T00:56:32;21.55;;;11.30;;
81807;SDS011;71241;13.676;100.700;2024-03-17T00:59:01;16.10;;;11.18;;
81807;SDS011;71241;13.676;100.700;2024-03-17T01:01:29;17.92;;;10.65;;
81807;SDS011;71241;13.676;100.700;2024-03-17T01:04:00;21.55;;;11.45;;
81807;SDS011;71241;13.676;100.700;2024-03-17T01:06:28;19.67;;;13.10;;
81807;SDS011;71241;13.676;100.700;2024-03-17T01:08:59;18.58;;;10.43;;
81807;SDS011;71241;13.676;100.700;2024-03-17T01:11:27;19.70;;;14.80;;
81807;SDS011;71241;13.676;100.700;2024-03-17T01:13:56;17.67;;;16.08;;
81807;SDS011;71241;13.676;100.700;2024-03-17T01:16:25;14.57;;;13.23;;
81807;SDS011;71241;13.676;100.700;2024-03-17T01:18:54;12.07;;;10.18;;
81807;SDS011;71241;13.676;100.700;2024-03-17T01:21:24;11.82;;;8.40;;
81807;SDS011;71241;13.676;100.700;2024-03-17T01:23:53;15.82;;;10.90;;
81807;SDS011;71241;13.676;100.700;2024-03-17T01:26:21;12.13;;;9.38;;
81807;SDS011;71241;13.676;100.700;2024-03-17T01:28:51;10.77;;;9.68;;
81807;SDS011;71241;13.676;100.700;2024-03-17T01:31:19;7.93;;;6.97;;
81807;SDS011;71241;13.676;100.700;2024-03-17T01:33:48;15.27;;;8.07;;
81807;SDS011;71241;13.676;100.700;2024-03-17T01:36:19;9.30;;;7.50;;
81807;SDS011;71241;13.676;100.700;2024-03-17T01:38:51;9.75;;;8.00;;
81807;SDS011;71241;13.676;100.700;2024-03-17T01:44:37;8.82;;;7.03;;
81807;SDS011;71241;13.676;100.700;2024-03-17T01:47:06;8.73;;;7.18;;
81807;SDS011;71241;13.676;100.700;2024-03-17T01:49:36;10.45;;;7.38;;
81807;SDS011;71241;13.676;100.700;2024-03-17T01:52:04;10.70;;;7.00;;
81807;SDS011;71241;13.676;100.700;2024-03-17T01:54:35;10.73;;;7.97;;
81807;SDS011;71241;13.676;100.700;2024-03-17T01:57:05;8.65;;;6.85;;
81807;SDS011;71241;13.676;100.700;2024-03-17T01:59:33;9.38;;;7.47;;
81807;SDS011;71241;13.676;100.700;2024-03-17T02:02:02;9.02;;;6.57;;
81807;SDS011;71241;13.676;100.700;2024-03-17T02:04:31;7.80;;;6.88;;
81807;SDS011;71241;13.676;100.700;2024-03-17T02:07:01;8.57;;;6.82;;
81807;SDS011;71241;13.676;100.700;2024-03-17T02:09:30;7.97;;;6.40;;
81807;SDS011;71241;13.676;100.700;2024-03-17T02:12:00;9.25;;;6.40;;
81807;SDS011;71241;13.676;100.700;2024-03-17T02:14:29;8.73;;;6.30;;
81807;SDS011;71241;13.676;100.700;2024-03-17T02:16:58;7.97;;;6.68;;
81807;SDS011;71241;13.676;100.700;2024-03-17T02:19:26;8.60;;;7.25;;
81807;SDS011;71241;13.676;100.700;2024-03-17T02:21:55;7.95;;;6.20;;
81807;SDS011;71241;13.676;100.700;2024-03-17T02:24:50;9.35;;;6.93;;
81807;SDS011;71241;13.676;100.700;2024-03-17T02:27:19;9.63;;;6.28;;
81807;SDS011;71241;13.676;100.700;2024-03-17T02:29:50;11.15;;;6.82;;
81807;SDS011;71241;13.676;100.700;2024-03-17T02:32:19;6.90;;;6.13;;
81807;SDS011;71241;13.676;100.700;2024-03-17T02:34:49;8.50;;;6.40;;
81807;SDS011;71241;13.676;100.700;2024-03-17T02:37:18;7.70;;;6.70;;
81807;SDS011;71241;13.676;100.700;2024-03-17T02:39:46;10.65;;;6.57;;
81807;SDS011;71241;13.676;100.700;2024-03-17T02:42:17;9.85;;;6.03;;
81807;SDS011;71241;13.676;100.700;2024-03-17T02:44:46;8.18;;;5.05;;
81807;SDS011;71241;13.676;100.700;2024-03-17T02:47:15;6.25;;;5.15;;
81807;SDS011;71241;13.676;100.700;2024-03-17T02:49:43;7.47;;;5.40;;
81807;SDS011;71241;13.676;100.700;2024-03-17T02:52:14;6.15;;;5.55;;
81807;SDS011;71241;13.676;100.700;2024-03-17T02:54:43;8.02;;;6.03;;
81807;SDS011;71241;13.676;100.700;2024-03-17T02:57:12;7.47;;;6.22;;
81807;SDS011;71241;13.676;100.700;2024-03-17T02:59:42;8.90;;;6.45;;
81807;SDS011;71241;13.676;100.700;2024-03-17T03:02:12;6.07;;;5.28;;
81807;SDS011;71241;13.676;100.700;2024-03-17T03:04:40;6.50;;;5.65;;
81807;SDS011;71241;13.676;100.700;2024-03-17T03:07:09;9.75;;;8.27;;
81807;SDS011;71241;13.676;100.700;2024-03-17T03:09:37;13.25;;;11.85;;
81807;SDS011;71241;13.676;100.700;2024-03-17T03:12:06;13.98;;;10.80;;
81807;SDS011;71241;13.676;100.700;2024-03-17T03:14:35;7.13;;;5.28;;
81807;SDS011;71241;13.676;100.700;2024-03-17T03:17:05;8.10;;;6.30;;
81807;SDS011;71241;13.676;100.700;2024-03-17T03:19:38;6.80;;;6.10;;
81807;SDS011;71241;13.676;100.700;2024-03-17T03:22:06;10.25;;;8.95;;
81807;SDS011;71241;13.676;100.700;2024-03-17T03:24:51;13.25;;;12.00;;
81807;SDS011;71241;13.676;100.700;2024-03-17T03:27:20;10.90;;;9.82;;
81807;SDS011;71241;13.676;100.700;2024-03-17T03:29:55;10.73;;;9.73;;
81807;SDS011;71241;13.676;100.700;2024-03-17T03:32:25;8.25;;;6.57;;
81807;SDS011;71241;13.676;100.700;2024-03-17T03:34:54;7.90;;;6.45;;
81807;SDS011;71241;13.676;100.700;2024-03-17T03:37:22;7.18;;;6.45;;
81807;SDS011;71241;13.676;100.700;2024-03-17T03:39:54;7.15;;;6.13;;
81807;SDS011;71241;13.676;100.700;2024-03-17T03:42:46;7.85;;;6.15;;
81807;SDS011;71241;13.676;100.700;2024-03-17T03:45:18;8.63;;;5.43;;
81807;SDS011;71241;13.676;100.700;2024-03-17T03:47:49;8.55;;;7.75;;
81807;SDS011;71241;13.676;100.700;2024-03-17T03:50:19;7.82;;;6.05;;
81807;SDS011;71241;13.676;100.700;2024-03-17T03:52:49;7.85;;;5.55;;
81807;SDS011;71241;13.676;100.700;2024-03-17T03:55:18;7.07;;;5.63;;
81807;SDS011;71241;13.676;100.700;2024-03-17T03:57:47;7.63;;;6.93;;
81807;SDS011;71241;13.676;100.700;2024-03-17T04:00:19;9.30;;;7.75;;
81807;SDS011;71241;13.676;100.700;2024-03-17T04:02:52;9.05;;;8.15;;
81807;SDS011;71241;13.676;100.700;2024-03-17T04:05:21;7.15;;;6.13;;
81807;SDS011;71241;13.676;100.700;2024-03-17T04:10:45;7.47;;;6.50;;
81807;SDS011;71241;13.676;100.700;2024-03-17T04:13:14;7.30;;;6.28;;
81807;SDS011;71241;13.676;100.700;2024-03-17T04:15:49;9.88;;;7.53;;
81807;SDS011;71241;13.676;100.700;2024-03-17T04:18:25;7.15;;;6.40;;
81807;SDS011;71241;13.676;100.700;2024-03-17T04:20:57;8.13;;;6.57;;
81807;SDS011;71241;13.676;100.700;2024-03-17T04:23:28;9.23;;;7.00;;
81807;SDS011;71241;13.676;100.700;2024-03-17T04:25:59;7.75;;;6.43;;
81807;SDS011;71241;13.676;100.700;2024-03-17T04:28:28;11.30;;;6.47;;
81807;SDS011;71241;13.676;100.700;2024-03-17T04:31:06;8.30;;;6.70;;
81807;SDS011;71241;13.676;100.700;2024-03-17T04:33:37;7.65;;;6.18;;
81807;SDS011;71241;13.676;100.700;2024-03-17T04:36:05;8.48;;;6.53;;
81807;SDS011;71241;13.676;100.700;2024-03-17T04:38:40;8.10;;;6.28;;
81807;SDS011;71241;13.676;100.700;2024-03-17T04:41:09;7.93;;;6.70;;
81807;SDS011;71241;13.676;100.700;2024-03-17T04:43:37;8.80;;;6.43;;
81807;SDS011;71241;13.676;100.700;2024-03-17T04:46:06;8.48;;;7.68;;
81807;SDS011;71241;13.676;100.700;2024-03-17T04:51:10;7.28;;;6.57;;
81807;SDS011;71241;13.676;100.700;2024-03-17T04:53:44;7.43;;;6.65;;
81807;SDS011;71241;13.676;100.700;2024-03-17T04:56:13;8.55;;;6.63;;
81807;SDS011;71241;13.676;100.700;2024-03-17T04:58:41;8.13;;;6.90;;
81807;SDS011;71241;13.676;100.700;2024-03-17T05:01:10;8.98;;;7.38;;
81807;SDS011;71241;13.676;100.700;2024-03-17T05:03:41;11.20;;;8.45;;
81807;SDS011;71241;13.676;100.700;2024-03-17T05:06:10;8.85;;;7.85;;
81807;SDS011;71241;13.676;100.700;2024-03-17T05:08:41;10.85;;;7.05;;
81807;SDS011;71241;13.676;100.700;2024-03-17T05:11:10;8.30;;;7.50;;
81807;SDS011;71241;13.676;100.700;2024-03-17T05:13:47;7.70;;;6.75;;
81807;SDS011;71241;13.676;100.700;2024-03-17T05:18:58;8.18;;;6.90;;
81807;SDS011;71241;13.676;100.700;2024-03-17T05:21:26;9.38;;;7.32;;
81807;SDS011;71241;13.676;100.700;2024-03-17T05:27:05;8.55;;;7.40;;
81807;SDS011;71241;13.676;100.700;2024-03-17T05:29:34;8.73;;;6.85;;
81807;SDS011;71241;13.676;100.700;2024-03-17T05:32:04;8.75;;;6.25;;
81807;SDS011;71241;13.676;100.700;2024-03-17T05:34:35;6.53;;;5.82;;
81807;SDS011;71241;13.676;100.700;2024-03-17T05:37:10;10.93;;;6.82;;
81807;SDS011;71241;13.676;100.700;2024-03-17T05:39:48;8.90;;;7.40;;
81807;SDS011;71241;13.676;100.700;2024-03-17T05:42:19;7.72;;;6.85;;
81807;SDS011;71241;13.676;100.700;2024-03-17T05:45:13;8.35;;;6.45;;
81807;SDS011;71241;13.676;100.700;2024-03-17T05:47:48;7.50;;;6.63;;
81807;SDS011;71241;13.676;100.700;2024-03-17T05:53:51;9.95;;;9.15;;
81807;SDS011;71241;13.676;100.700;2024-03-17T05:59:19;10.57;;;8.95;;
81807;SDS011;71241;13.676;100.700;2024-03-17T06:01:50;8.82;;;8.02;;
81807;SDS011;71241;13.676;100.700;2024-03-17T06:04:19;8.68;;;7.93;;
81807;SDS011;71241;13.676;100.700;2024-03-17T06:06:47;7.40;;;6.68;;
81807;SDS011;71241;13.676;100.700;2024-03-17T06:09:18;7.65;;;6.35;;
81807;SDS011;71241;13.676;100.700;2024-03-17T06:11:47;9.52;;;8.73;;
81807;SDS011;71241;13.676;100.700;2024-03-17T06:14:15;9.98;;;8.88;;
81807;SDS011;71241;13.676;100.700;2024-03-17T06:16:44;7.65;;;6.85;;
81807;SDS011;71241;13.676;100.700;2024-03-17T06:19:14;8.88;;;6.97;;
81807;SDS011;71241;13.676;100.700;2024-03-17T06:21:43;8.20;;;7.43;;
81807;SDS011;71241;13.676;100.700;2024-03-17T06:24:12;8.95;;;7.55;;
81807;SDS011;71241;13.676;100.700;2024-03-17T06:26:42;8.50;;;7.60;;
81807;SDS011;71241;13.676;100.700;2024-03-17T06:29:10;9.38;;;7.50;;
81807;SDS011;71241;13.676;100.700;2024-03-17T06:31:39;9.32;;;8.52;;
81807;SDS011;71241;13.676;100.700;2024-03-17T06:34:08;10.77;;;7.65;;
81807;SDS011;71241;13.676;100.700;2024-03-17T06:36:37;9.43;;;7.32;;
81807;SDS011;71241;13.676;100.700;2024-03-17T06:39:05;8.65;;;7.00;;
81807;SDS011;71241;13.676;100.700;2024-03-17T06:41:34;8.98;;;8.15;;
81807;SDS011;71241;13.676;100.700;2024-03-17T06:44:06;8.07;;;7.00;;
81807;SDS011;71241;13.676;100.700;2024-03-17T06:46:44;12.52;;;7.57;;
81807;SDS011;71241;13.676;100.700;2024-03-17T06:49:20;8.63;;;7.00;;
81807;SDS011;71241;13.676;100.700;2024-03-17T06:51:54;8.55;;;7.38;;
81807;SDS011;71241;13.676;100.700;2024-03-17T06:54:26;9.80;;;7.05;;
81807;SDS011;71241;13.676;100.700;2024-03-17T06:56:55;9.32;;;7.45;;
81807;SDS011;71241;13.676;100.700;2024-03-17T06:59:25;8.18;;;7.38;;
81807;SDS011;71241;13.676;100.700;2024-03-17T07:01:53;8.98;;;8.02;;
81807;SDS011;71241;13.676;100.700;2024-03-17T07:04:22;7.90;;;7.07;;
81807;SDS011;71241;13.676;100.700;2024-03-17T07:06:50;10.63;;;9.68;;
81807;SDS011;71241;13.676;100.700;2024-03-17T07:09:19;24.70;;;23.08;;
81807;SDS011;71241;13.676;100.700;2024-03-17T07:11:54;20.20;;;18.85;;
81807;SDS011;71241;13.676;100.700;2024-03-17T07:14:23;19.48;;;18.05;;
81807;SDS011;71241;13.676;100.700;2024-03-17T07:16:53;14.25;;;13.25;;
81807;SDS011;71241;13.676;100.700;2024-03-17T07:19:22;11.45;;;10.35;;
81807;SDS011;71241;13.676;100.700;2024-03-17T07:21:50;11.88;;;10.88;;
81807;SDS011;71241;13.676;100.700;2024-03-17T07:24:19;12.88;;;11.77;;
81807;SDS011;71241;13.676;100.700;2024-03-17T07:26:50;12.50;;;11.45;;
81807;SDS011;71241;13.676;100.700;2024-03-17T07:29:19;13.85;;;12.75;;
81807;SDS011;71241;13.676;100.700;2024-03-17T07:31:50;12.80;;;11.77;;
81807;SDS011;71241;13.676;100.700;2024-03-17T07:34:18;12.63;;;11.65;;
81807;SDS011;71241;13.676;100.700;2024-03-17T07:36:47;13.20;;;12.10;;
81807;SDS011;71241;13.676;100.700;2024-03-17T07:39:15;13.05;;;12.07;;
81807;SDS011;71241;13.676;100.700;2024-03-17T07:41:45;14.80;;;13.68;;
81807;SDS011;71241;13.676;100.700;2024-03-17T07:44:14;15.73;;;14.73;;
81807;SDS011;71241;13.676;100.700;2024-03-17T07:46:42;15.32;;;14.13;;
81807;SDS011;71241;13.676;100.700;2024-03-17T07:49:13;14.57;;;13.27;;
81807;SDS011;71241;13.676;100.700;2024-03-17T07:51:45;13.23;;;12.13;;
81807;SDS011;71241;13.676;100.700;2024-03-17T07:54:14;13.30;;;12.20;;
81807;SDS011;71241;13.676;100.700;2024-03-17T07:56:42;14.52;;;13.23;;
81807;SDS011;71241;13.676;100.700;2024-03-17T07:59:13;18.27;;;16.83;;
81807;SDS011;71241;13.676;100.700;2024-03-17T08:01:46;14.13;;;12.77;;
81807;SDS011;71241;13.676;100.700;2024-03-17T08:04:20;14.55;;;13.32;;
81807;SDS011;71241;13.676;100.700;2024-03-17T08:06:48;13.68;;;12.50;;
81807;SDS011;71241;13.676;100.700;2024-03-17T08:09:20;13.45;;;12.23;;
81807;SDS011;71241;13.676;100.700;2024-03-17T08:11:55;13.75;;;12.55;;
81807;SDS011;71241;13.676;100.700;2024-03-17T08:14:24;13.25;;;12.05;;
81807;SDS011;71241;13.676;100.700;2024-03-17T08:16:56;13.52;;;12.32;;
81807;SDS011;71241;13.676;100.700;2024-03-17T08:19:26;13.88;;;12.60;;
81807;SDS011;71241;13.676;100.700;2024-03-17T08:25:00;16.02;;;14.77;;
81807;SDS011;71241;13.676;100.700;2024-03-17T08:27:31;15.45;;;14.15;;
81807;SDS011;71241;13.676;100.700;2024-03-17T08:30:02;17.95;;;16.55;;
81807;SDS011;71241;13.676;100.700;2024-03-17T08:32:51;16.00;;;14.82;;
81807;SDS011;71241;13.676;100.700;2024-03-17T08:35:27;12.18;;;11.05;;
81807;SDS011;71241;13.676;100.700;2024-03-17T08:40:27;14.27;;;11.40;;
81807;SDS011;71241;13.676;100.700;2024-03-17T08:45:35;10.65;;;9.65;;
81807;SDS011;71241;13.676;100.700;2024-03-17T08:48:05;12.57;;;11.40;;
81807;SDS011;71241;13.676;100.700;2024-03-17T08:50:36;13.32;;;12.13;;
81807;SDS011;71241;13.676;100.700;2024-03-17T08:53:05;12.00;;;10.93;;
81807;SDS011;71241;13.676;100.700;2024-03-17T08:55:34;14.15;;;12.73;;
81807;SDS011;71241;13.676;100.700;2024-03-17T08:58:02;12.38;;;11.25;;
81807;SDS011;71241;13.676;100.700;2024-03-17T09:00:34;13.30;;;11.45;;
81807;SDS011;71241;13.676;100.700;2024-03-17T09:03:04;13.57;;;12.18;;
81807;SDS011;71241;13.676;100.700;2024-03-17T09:05:32;12.32;;;11.25;;
81807;SDS011;71241;13.676;100.700;2024-03-17T09:08:02;13.88;;;12.52;;
81807;SDS011;71241;13.676;100.700;2024-03-17T09:10:31;13.32;;;12.20;;
81807;SDS011;71241;13.676;100.700;2024-03-17T09:13:00;12.85;;;11.57;;
81807;SDS011;71241;13.676;100.700;2024-03-17T09:15:28;11.55;;;10.52;;
81807;SDS011;71241;13.676;100.700;2024-03-17T09:17:57;13.95;;;12.65;;
81807;SDS011;71241;13.676;100.700;2024-03-17T09:20:25;13.35;;;12.00;;
81807;SDS011;71241;13.676;100.700;2024-03-17T09:22:57;14.80;;;13.50;;
81807;SDS011;71241;13.676;100.700;2024-03-17T09:25:28;15.98;;;12.02;;
81807;SDS011;71241;13.676;100.700;2024-03-17T09:27:57;12.60;;;11.13;;
81807;SDS011;71241;13.676;100.700;2024-03-17T09:30:29;12.23;;;10.93;;
81807;SDS011;71241;13.676;100.700;2024-03-17T09:32:57;13.05;;;10.63;;
81807;SDS011;71241;13.676;100.700;2024-03-17T09:35:31;12.60;;;11.43;;
81807;SDS011;71241;13.676;100.700;2024-03-17T09:38:04;12.25;;;10.65;;
81807;SDS011;71241;13.676;100.700;2024-03-17T09:40:33;12.40;;;10.23;;
81807;SDS011;71241;13.676;100.700;2024-03-17T09:43:02;11.40;;;10.40;;
81807;SDS011;71241;13.676;100.700;2024-03-17T09:48:24;12.20;;;11.13;;
81807;SDS011;71241;13.676;100.700;2024-03-17T09:53:53;10.30;;;9.35;;
81807;SDS011;71241;13.676;100.700;2024-03-17T09:56:34;11.77;;;10.57;;
81807;SDS011;71241;13.676;100.700;2024-03-17T09:59:02;11.98;;;10.88;;
81807;SDS011;71241;13.676;100.700;2024-03-17T10:01:31;12.15;;;11.13;;
81807;SDS011;71241;13.676;100.700;2024-03-17T10:04:03;12.60;;;11.38;;
81807;SDS011;71241;13.676;100.700;2024-03-17T10:06:31;10.55;;;9.45;;
81807;SDS011;71241;13.676;100.700;2024-03-17T10:09:02;12.55;;;11.30;;
81807;SDS011;71241;13.676;100.700;2024-03-17T10:11:37;11.23;;;10.13;;
81807;SDS011;71241;13.676;100.700;2024-03-17T10:14:10;10.90;;;9.90;;
81807;SDS011;71241;13.676;100.700;2024-03-17T10:16:40;10.27;;;9.25;;
81807;SDS011;71241;13.676;100.700;2024-03-17T10:19:11;10.52;;;9.63;;
81807;SDS011;71241;13.676;100.700;2024-03-17T10:21:40;11.93;;;9.68;;
81807;SDS011;71241;13.676;100.700;2024-03-17T10:24:12;16.60;;;10.45;;
81807;SDS011;71241;13.676;100.700;2024-03-17T10:26:47;11.20;;;10.23;;
81807;SDS011;71241;13.676;100.700;2024-03-17T10:29:27;10.13;;;9.02;;
81807;SDS011;71241;13.676;100.700;2024-03-17T10:32:12;10.25;;;9.18;;
81807;SDS011;71241;13.676;100.700;2024-03-17T10:34:41;11.18;;;9.38;;
81807;SDS011;71241;13.676;100.700;2024-03-17T10:37:10;10.60;;;9.48;;
81807;SDS011;71241;13.676;100.700;2024-03-17T10:39:43;11.85;;;10.10;;
81807;SDS011;71241;13.676;100.700;2024-03-17T10:42:12;11.50;;;9.75;;
81807;SDS011;71241;13.676;100.700;2024-03-17T10:44:42;11.10;;;10.10;;
81807;SDS011;71241;13.676;100.700;2024-03-17T10:47:17;10.75;;;9.68;;
81807;SDS011;71241;13.676;100.700;2024-03-17T10:49:50;10.77;;;9.68;;
81807;SDS011;71241;13.676;100.700;2024-03-17T10:52:26;10.43;;;9.43;;
81807;SDS011;71241;13.676;100.700;2024-03-17T10:54:57;12.93;;;11.75;;
81807;SDS011;71241;13.676;100.700;2024-03-17T10:57:31;11.13;;;10.00;;
81807;SDS011;71241;13.676;100.700;2024-03-17T11:00:05;10.70;;;9.70;;
81807;SDS011;71241;13.676;100.700;2024-03-17T11:02:40;10.75;;;9.75;;
81807;SDS011;71241;13.676;100.700;2024-03-17T11:05:10;11.02;;;10.02;;
81807;SDS011;71241;13.676;100.700;2024-03-17T11:07:41;12.93;;;11.70;;
81807;SDS011;71241;13.676;100.700;2024-03-17T11:10:18;10.45;;;8.88;;
81807;SDS011;71241;13.676;100.700;2024-03-17T11:12:48;12.98;;;11.82;;
81807;SDS011;71241;13.676;100.700;2024-03-17T11:21:19;11.80;;;10.68;;
81807;SDS011;71241;13.676;100.700;2024-03-17T11:23:54;10.85;;;9.85;;
81807;SDS011;71241;13.676;100.700;2024-03-17T11:26:28;12.07;;;11.10;;
81807;SDS011;71241;13.676;100.700;2024-03-17T11:29:00;10.85;;;9.82;;
81807;SDS011;71241;13.676;100.700;2024-03-17T11:37:01;15.15;;;8.32;;
81807;SDS011;71241;13.676;100.700;2024-03-17T11:39:51;11.23;;;8.73;;
81807;SDS011;71241;13.676;100.700;2024-03-17T11:42:26;11.63;;;10.43;;
81807;SDS011;71241;13.676;100.700;2024-03-17T11:45:04;11.48;;;8.02;;
81807;SDS011;71241;13.676;100.700;2024-03-17T11:50:06;10.57;;;9.48;;
81807;SDS011;71241;13.676;100.700;2024-03-17T11:52:37;14.13;;;9.75;;
81807;SDS011;71241;13.676;100.700;2024-03-17T11:55:15;13.77;;;9.90;;
81807;SDS011;71241;13.676;100.700;2024-03-17T11:57:47;12.50;;;11.23;;
81807;SDS011;71241;13.676;100.700;2024-03-17T12:02:52;12.30;;;11.02;;
81807;SDS011;71241;13.676;100.700;2024-03-17T12:05:21;12.63;;;10.75;;
81807;SDS011;71241;13.676;100.700;2024-03-17T12:08:00;15.68;;;11.23;;
81807;SDS011;71241;13.676;100.700;2024-03-17T12:10:29;13.07;;;11.38;;
81807;SDS011;71241;13.676;100.700;2024-03-17T12:12:59;12.73;;;11.38;;
81807;SDS011;71241;13.676;100.700;2024-03-17T12:15:28;11.48;;;10.15;;
81807;SDS011;71241;13.676;100.700;2024-03-17T12:18:22;12.98;;;11.57;;
81807;SDS011;71241;13.676;100.700;2024-03-17T12:21:08;13.68;;;12.27;;
81807;SDS011;71241;13.676;100.700;2024-03-17T12:23:48;14.32;;;12.75;;
81807;SDS011;71241;13.676;100.700;2024-03-17T12:27:16;14.25;;;12.85;;
81807;SDS011;71241;13.676;100.700;2024-03-17T12:30:02;15.27;;;12.98;;
81807;SDS011;71241;13.676;100.700;2024-03-17T12:36:46;14.23;;;12.85;;
81807;SDS011;71241;13.676;100.700;2024-03-17T12:40:30;15.60;;;14.07;;
81807;SDS011;71241;13.676;100.700;2024-03-17T12:46:28;14.32;;;12.88;;
81807;SDS011;71241;13.676;100.700;2024-03-17T12:51:52;14.65;;;12.40;;
81807;SDS011;71241;13.676;100.700;2024-03-17T12:54:43;15.57;;;13.98;;
81807;SDS011;71241;13.676;100.700;2024-03-17T12:57:31;15.25;;;13.90;;
81807;SDS011;71241;13.676;100.700;2024-03-17T13:00:21;16.42;;;12.90;;
81807;SDS011;71241;13.676;100.700;2024-03-17T13:03:05;15.75;;;13.48;;
81807;SDS011;71241;13.676;100.700;2024-03-17T13:05:39;15.45;;;12.57;;
81807;SDS011;71241;13.676;100.700;2024-03-17T13:08:18;16.90;;;13.25;;
81807;SDS011;71241;13.676;100.700;2024-03-17T13:11:09;15.98;;;13.27;;
81807;SDS011;71241;13.676;100.700;2024-03-17T13:13:47;18.42;;;13.95;;
81807;SDS011;71241;13.676;100.700;2024-03-17T13:16:31;19.55;;;12.88;;
81807;SDS011;71241;13.676;100.700;2024-03-17T13:19:33;15.48;;;13.85;;
81807;SDS011;71241;13.676;100.700;2024-03-17T13:22:25;15.45;;;13.65;;
81807;SDS011;71241;13.676;100.700;2024-03-17T13:25:17;15.45;;;13.82;;
81807;SDS011;71241;13.676;100.700;2024-03-17T13:28:13;17.75;;;16.15;;
81807;SDS011;71241;13.676;100.700;2024-03-17T13:30:48;18.35;;;15.55;;
81807;SDS011;71241;13.676;100.700;2024-03-17T13:36:53;15.27;;;13.43;;
81807;SDS011;71241;13.676;100.700;2024-03-17T13:39:34;18.50;;;13.80;;
81807;SDS011;71241;13.676;100.700;2024-03-17T13:43:10;16.08;;;13.20;;
81807;SDS011;71241;13.676;100.700;2024-03-17T13:45:58;14.82;;;13.27;;
81807;SDS011;71241;13.676;100.700;2024-03-17T13:48:44;15.50;;;13.27;;
81807;SDS011;71241;13.676;100.700;2024-03-17T13:51:20;17.02;;;14.10;;
81807;SDS011;71241;13.676;100.700;2024-03-17T13:53:50;16.33;;;14.48;;
81807;SDS011;71241;13.676;100.700;2024-03-17T13:56:19;15.82;;;13.57;;
81807;SDS011;71241;13.676;100.700;2024-03-17T13:58:50;16.63;;;14.95;;
81807;SDS011;71241;13.676;100.700;2024-03-17T14:01:21;16.75;;;14.10;;
81807;SDS011;71241;13.676;100.700;2024-03-17T14:03:53;14.85;;;13.00;;
81807;SDS011;71241;13.676;100.700;2024-03-17T14:06:22;15.95;;;14.27;;
81807;SDS011;71241;13.676;100.700;2024-03-17T14:08:53;16.95;;;14.77;;
81807;SDS011;71241;13.676;100.700;2024-03-17T14:11:24;15.77;;;13.48;;
81807;SDS011;71241;13.676;100.700;2024-03-17T14:13:53;14.45;;;12.95;;
81807;SDS011;71241;13.676;100.700;2024-03-17T14:16:24;15.43;;;13.85;;
81807;SDS011;71241;13.676;100.700;2024-03-17T14:18:59;16.00;;;12.38;;
81807;SDS011;71241;13.676;100.700;2024-03-17T14:21:31;17.75;;;15.15;;
81807;SDS011;71241;13.676;100.700;2024-03-17T14:24:01;13.55;;;12.13;;
81807;SDS011;71241;13.676;100.700;2024-03-17T14:26:34;19.05;;;17.15;;
81807;SDS011;71241;13.676;100.700;2024-03-17T14:29:03;19.05;;;14.10;;
81807;SDS011;71241;13.676;100.700;2024-03-17T14:31:32;16.10;;;14.40;;
81807;SDS011;71241;13.676;100.700;2024-03-17T14:34:03;20.08;;;17.77;;
81807;SDS011;71241;13.676;100.700;2024-03-17T14:36:33;15.63;;;13.18;;
81807;SDS011;71241;13.676;100.700;2024-03-17T14:39:03;15.80;;;13.23;;
81807;SDS011;71241;13.676;100.700;2024-03-17T14:41:32;18.80;;;15.80;;
81807;SDS011;71241;13.676;100.700;2024-03-17T14:44:02;20.25;;;15.27;;
81807;SDS011;71241;13.676;100.700;2024-03-17T14:46:31;18.08;;;16.15;;
81807;SDS011;71241;13.676;100.700;2024-03-17T14:49:00;18.38;;;13.52;;
81807;SDS011;71241;13.676;100.700;2024-03-17T14:51:32;21.15;;;15.60;;
81807;SDS011;71241;13.676;100.700;2024-03-17T14:54:06;18.67;;;14.93;;
81807;SDS011;71241;13.676;100.700;2024-03-17T14:56:38;17.40;;;15.13;;
81807;SDS011;71241;13.676;100.700;2024-03-17T14:59:12;16.48;;;14.70;;
81807;SDS011;71241;13.676;100.700;2024-03-17T15:01:45;18.25;;;14.30;;
81807;SDS011;71241;13.676;100.700;2024-03-17T15:04:15;17.63;;;15.20;;
81807;SDS011;71241;13.676;100.700;2024-03-17T15:06:45;19.05;;;17.25;;
81807;SDS011;71241;13.676;100.700;2024-03-17T15:09:16;16.33;;;14.57;;
81807;SDS011;71241;13.676;100.700;2024-03-17T15:11:46;17.52;;;13.93;;
81807;SDS011;71241;13.676;100.700;2024-03-17T15:14:18;18.95;;;16.27;;
81807;SDS011;71241;13.676;100.700;2024-03-17T15:16:49;18.83;;;16.13;;
81807;SDS011;71241;13.676;100.700;2024-03-17T15:19:21;18.90;;;15.18;;
81807;SDS011;71241;13.676;100.700;2024-03-17T15:21:50;21.35;;;16.42;;
81807;SDS011;71241;13.676;100.700;2024-03-17T15:24:21;18.65;;;16.65;;
81807;SDS011;71241;13.676;100.700;2024-03-17T15:26:50;17.92;;;16.02;;
81807;SDS011;71241;13.676;100.700;2024-03-17T15:29:29;17.88;;;15.82;;
81807;SDS011;71241;13.676;100.700;2024-03-17T15:31:58;18.63;;;16.60;;
81807;SDS011;71241;13.676;100.700;2024-03-17T15:34:30;20.55;;;15.82;;
81807;SDS011;71241;13.676;100.700;2024-03-17T15:37:00;19.27;;;16.33;;
81807;SDS011;71241;13.676;100.700;2024-03-17T15:39:32;19.13;;;15.23;;
81807;SDS011;71241;13.676;100.700;2024-03-17T15:42:00;17.52;;;14.82;;